Meteo Giornale » Osservazioni meteo Italia » Catania-Fontanarossa

ore: 15:50 - Osservazioni Meteo Catania-Fontanarossa
Lat. 37° 28' N Lon. 15° 3' E Alt. 11 metri s.l.m.

sereno Europe/Rome

14 °C

Sereno

Temp. 24 Ore

1 °C

18 °C

Est

16.7 Km/h

Dew point 8 °C

Umidità 67 %

Visibilità  10 Km

Il sole sorge alle ore 06:43

Il sole tramonta alle ore 17:43

Data e Ora Cielo e Fenomeni T °C DP °C Um. % Pres. hPa Vis. km Vento km/h
Oggi h: 15:50 sereno Sereno 14 8 67 1024 10 E 16.7
Oggi h: 15:20 sereno Sereno 14 9 71 1024 10 E 14.8
Oggi h: 14:50 sereno Sereno 14 9 71 1024 10 E 14.8
Oggi h: 14:20 sereno Sereno 15 9 67 1024 10 E 20.3
Oggi h: 13:50 sereno Sereno 18 5 42 1024 10 N 5.5
Oggi h: 13:20 sereno Sereno 17 5 45 1024 10 O/SO 11.1
Oggi h: 12:50 sereno Sereno 17 5 45 1025 10 O/SO 14.8
Oggi h: 12:20 sereno Sereno 16 5 47 1025 10 O/SO 16.7
Oggi h: 11:50 sereno Sereno 15 6 54 1026 10 O/SO 16.7
Oggi h: 11:20 sereno Sereno 15 6 54 1026 10 O/SO 16.7
Oggi h: 10:50 sereno Sereno 14 5 54 1026 10 O 16.7
Oggi h: 10:20 sereno Sereno 13 5 58 1026 10 O 16.7
Oggi h: 09:50 sereno Sereno 11 7 76 1027 10 SO 11.1
Oggi h: 09:20 sereno Sereno 9 7 87 1027 10 S/SO 13
Oggi h: 08:50 sereno Sereno 6 5 93 1027 10 O/SO 7.4
Oggi h: 08:20 sereno Sereno 4 4 100 1027 10 O/SO 9.3
Oggi h: 07:50 sereno Sereno 3 3 100 1027 10 SO 13
Oggi h: 07:20 sereno Sereno 1 1 100 1027 10 O/SO 7.4
Oggi h: 06:50 foschia Foschia 1 1 100 1026 4 O/SO 7.4
Oggi h: 06:20 sereno Sereno 1 1 100 1026 10 SO 7.4
Oggi h: 05:50 sereno Sereno 1 1 100 1026 10 O/SO 9.3
Oggi h: 05:20 sereno Sereno 2 1 93 1026 10 O/SO 7.4
Oggi h: 04:50 sereno Sereno 3 2 93 1026 10 SO 9.3
Oggi h: 04:20 sereno Sereno 3 2 93 1026 10 O 14.8
Oggi h: 03:50 sereno Sereno 2 2 100 1026 10 O 11.1
Oggi h: 03:20 sereno Sereno 3 2 93 1026 10 O 9.3
Oggi h: 02:50 sereno Sereno 2 1 93 1027 10 SO 7.4
Oggi h: 02:20 sereno Sereno 3 2 93 1027 10 N 5.5
Oggi h: 01:50 sereno Sereno 3 2 93 1027 10 N 5.5
Oggi h: 01:20 sereno Sereno 4 3 93 1027 10 SO 7.4
Oggi h: 00:50 sereno Sereno 3 3 100 1027 10 N 5.5
Oggi h: 00:20 sereno Sereno 4 3 93 1027 10 SO 9.3
Ieri h: 23:50 sereno Sereno 4 3 93 1027 10 O 11.1
Ieri h: 23:20 sereno Sereno 4 3 93 1028 10 O/SO 11.1
Ieri h: 22:50 sereno Sereno 5 3 86 1028 10 O 9.3
Ieri h: 22:20 sereno Sereno 6 3 81 1028 10 SO 7.4
Ieri h: 21:50 sereno Sereno 8 3 70 1028 10 O/NO 9.3
Ieri h: 21:20 sereno Sereno 9 4 70 1028 10 O/NO 11.1
Ieri h: 20:50 sereno Sereno 7 6 93 1028 10 O 13
Ieri h: 20:20 sereno Sereno 7 4 81 1028 10 N 3.7
Ieri h: 19:50 sereno Sereno 9 3 66 1028 10 N 1.8
Ieri h: 19:20 sereno Sereno 12 5 62 1027 10 N 0
Ieri h: 18:50 sereno Sereno 10 4 66 1028 10 N 3.7
Ieri h: 18:20 sereno Sereno 12 5 62 1027 10 N 5.5
Ieri h: 17:50 sereno Sereno 13 5 58 1027 10 N 5.5
Ieri h: 17:20 sereno Sereno 13 5 58 1027 10 E 9.3
Ieri h: 16:50 sereno Sereno 14 6 58 1027 10 E 9.3
Ieri h: 16:20 sereno Sereno 14 4 50 1027 10 E 13
Ieri h: 15:50 sereno Sereno 15 3 44 1027 10 E/SE 11.1